Landers, California
Current Conditions -  °F | °C
As of 10:56 AM on Tuesday 21 Oct 2014 (Local Time) from KNXP Reporting Station
Few Clouds Few Clouds  
Wind Chill: 74°   Ceiling: Unl
Heat Index: 74°   Visibility: 10mi
Dew Point: 45°   Wind: 7mph
Humidity: 35%   Direction: 330°NNW
Pressure: 30"   Gusts: NA
Location:  34.27°N, 116.39°W
Report Text: KNXP 211756Z 33006KT 10SM FEW080 23/07 A3000 RMK AO2 SLP125 T02330072 10233 20161 58005
Loading
Personal Weather Stations






























Interactive Weather Map New forecast layout! Learn more

10-Day Weather Forecast

Advertisements
Track Severe Weather on mobile